Time;durP1;ratioP1;P1;durP2;ratioP2;P2;SDS_P1;SDS_P2;PMS_P1;PMS_P2;Temp;Humidity;BMP_temperature;BMP_pressure;BME280_temperature;BME280_humidity;BME280_pressure;Samples;Min_cycle;Max_cycle;Signal;HPM_P1;HPM_P2
2023/04/01 00:00:05;;;;;;;12.80;5.60;;;;;;;7.81;81.83;96852.23;104909;1261;97992;-68
2023/04/01 00:02:32;;;;;;;13.10;3.80;;;;;;;7.81;81.62;96852.46;104741;1262;111400;-69
2023/04/01 00:05:00;;;;;;;10.70;4.50;;;;;;;7.80;81.67;96851.04;104873;1261;99013;-69
2023/04/01 00:07:27;;;;;;;9.20;4.10;;;;;;;7.81;81.96;96853.23;104539;1262;98019;-69
2023/04/01 00:09:56;;;;;;;4.70;2.30;;;;;;;7.83;81.96;96854.48;104629;1271;98093;-68
2023/04/01 00:12:24;;;;;;;9.10;3.60;;;;;;;7.85;81.73;96850.17;104658;1257;98013;-70
2023/04/01 00:14:52;;;;;;;4.00;2.10;;;;;;;7.88;81.50;96846.77;104896;1262;112204;-67
2023/04/01 00:17:19;;;;;;;7.80;3.60;;;;;;;7.88;81.89;96842.80;104974;1262;98021;-68
2023/04/01 00:19:47;;;;;;;10.90;5.00;;;;;;;7.89;81.59;96840.96;104649;1260;108129;-68
2023/04/01 00:22:14;;;;;;;7.60;3.00;;;;;;;7.87;81.63;96833.20;104819;1274;99227;-67
2023/04/01 00:24:41;;;;;;;14.10;5.40;;;;;;;7.86;81.20;96835.40;104885;1261;98012;-67
2023/04/01 00:27:10;;;;;;;9.60;3.90;;;;;;;7.83;80.85;96830.08;104800;1262;99250;-67
2023/04/01 00:29:37;;;;;;;8.50;4.20;;;;;;;7.76;81.82;96833.77;104833;1264;99126;-67
2023/04/01 00:32:05;;;;;;;6.20;2.70;;;;;;;7.70;82.17;96832.02;104805;1261;97945;-67
2023/04/01 00:34:32;;;;;;;10.10;3.80;;;;;;;7.63;82.29;96833.21;104583;1273;98495;-68
2023/04/01 00:37:00;;;;;;;9.20;4.00;;;;;;;7.60;82.44;96837.15;104831;1261;97946;-67
2023/04/01 00:39:31;;;;;;;12.20;4.00;;;;;;;7.58;82.53;96839.96;104850;1262;99417;-68
2023/04/01 00:41:59;;;;;;;12.30;5.30;;;;;;;7.58;81.76;96844.46;104649;1261;99200;-68
2023/04/01 00:44:31;;;;;;;12.60;5.30;;;;;;;7.57;82.13;96844.28;104811;1259;108675;-67
2023/04/01 00:47:00;;;;;;;13.30;5.00;;;;;;;7.56;82.09;96845.11;104817;1262;97904;-67
2023/04/01 00:49:32;;;;;;;10.90;4.10;;;;;;;7.56;82.53;96847.12;104668;1263;98616;-67
2023/04/01 00:52:03;;;;;;;9.90;3.10;;;;;;;7.56;82.49;96842.21;104564;1262;112104;-67
2023/04/01 00:54:31;;;;;;;11.80;4.40;;;;;;;7.55;82.70;96842.05;104854;1259;99022;-68
2023/04/01 00:57:17;;;;;;;10.70;4.10;;;;;;;7.55;82.42;96844.61;104434;1267;107614;-68
2023/04/01 00:59:52;;;;;;;14.40;5.10;;;;;;;7.53;82.87;96845.18;104527;1279;98810;-67
2023/04/01 01:02:20;;;;;;;8.30;3.20;;;;;;;7.52;83.29;96848.51;104813;1273;98033;-68
2023/04/01 01:04:48;;;;;;;13.80;5.40;;;;;;;7.52;82.47;96842.48;104483;1274;110747;-67
2023/04/01 01:07:39;;;;;;;9.20;4.40;;;;;;;7.52;83.16;96842.05;104618;1262;99122;-67
2023/04/01 01:10:15;;;;;;;14.80;5.40;;;;;;;7.56;83.39;96845.41;104513;1265;108530;-67
2023/04/01 01:13:11;;;;;;;10.60;4.50;;;;;;;7.60;82.90;96843.05;104626;1263;98039;-67
2023/04/01 01:16:35;;;;;;;7.90;4.10;;;;;;;7.64;83.09;96837.05;104685;1261;98583;-67
2023/04/01 01:19:40;;;;;;;14.20;5.90;;;;;;;7.66;82.71;96829.64;104215;1270;112104;-67
2023/04/01 01:22:41;;;;;;;18.40;6.40;;;;;;;7.68;82.70;96826.48;104211;1266;99158;-66
2023/04/01 01:25:50;;;;;;;13.40;5.60;;;;;;;7.67;82.64;96832.71;104138;1279;108657;-67
2023/04/01 01:28:53;;;;;;;12.10;5.40;;;;;;;7.64;82.50;96832.39;104002;1271;97889;-67
2023/04/01 01:31:49;;;;;;;9.90;4.80;;;;;;;7.61;82.83;96829.33;104217;1268;98144;-71
2023/04/01 01:34:32;;;;;;;8.80;4.60;;;;;;;7.57;82.98;96830.89;104192;1268;112072;-70
2023/04/01 01:37:05;;;;;;;14.20;6.40;;;;;;;7.54;82.74;96823.40;104153;1266;98437;-70
2023/04/01 01:39:34;;;;;;;11.00;5.60;;;;;;;7.51;83.02;96827.21;104366;1264;108030;-68
2023/04/01 01:42:06;;;;;;;13.60;6.60;;;;;;;7.50;82.91;96825.08;104312;1264;99279;-68
2023/04/01 01:44:36;;;;;;;14.30;6.00;;;;;;;7.50;82.89;96830.12;104401;1268;98028;-68
2023/04/01 01:47:03;;;;;;;10.80;5.30;;;;;;;7.48;82.41;96831.16;104397;1268;113196;-68
2023/04/01 01:49:33;;;;;;;14.40;6.70;;;;;;;7.45;82.79;96826.00;104324;1277;99387;-68
2023/04/01 01:52:00;;;;;;;11.90;5.60;;;;;;;7.43;82.66;96830.06;104392;1268;109315;-68
2023/04/01 01:54:27;;;;;;;12.30;5.90;;;;;;;7.42;82.71;96830.80;104400;1268;99341;-68
2023/04/01 01:57:09;;;;;;;13.10;6.40;;;;;;;7.40;82.70;96836.34;104790;1263;97996;-67
2023/04/01 01:59:40;;;;;;;13.80;6.30;;;;;;;7.37;83.07;96835.39;104567;1265;111854;-67
2023/04/01 02:02:10;;;;;;;12.10;5.30;;;;;;;7.36;83.02;96839.94;104823;1263;99195;-67
2023/04/01 02:04:42;;;;;;;16.70;7.40;;;;;;;7.32;82.96;96837.41;104586;1265;108633;-68
2023/04/01 02:07:16;;;;;;;10.20;4.80;;;;;;;7.30;83.57;96841.30;104781;1264;99345;-68
2023/04/01 02:09:48;;;;;;;8.20;4.00;;;;;;;7.28;83.89;96841.77;104798;1265;98699;-68
2023/04/01 02:12:28;;;;;;;7.10;3.30;;;;;;;7.27;84.25;96837.64;104573;1278;114500;-68
2023/04/01 02:15:09;;;;;;;7.00;4.10;;;;;;;7.30;84.64;96840.93;104774;1259;99209;-67
2023/04/01 02:17:45;;;;;;;11.50;4.70;;;;;;;7.34;84.92;96844.63;104510;1264;108122;-68
2023/04/01 02:20:21;;;;;;;13.00;6.00;;;;;;;7.39;84.63;96848.08;104730;1275;97830;-67
2023/04/01 02:22:54;;;;;;;9.10;3.80;;;;;;;7.43;84.62;96847.04;104733;1265;98220;-68
2023/04/01 02:25:28;;;;;;;7.20;3.30;;;;;;;7.48;84.70;96847.14;104760;1274;112188;-67
2023/04/01 02:27:58;;;;;;;6.00;3.10;;;;;;;7.53;84.62;96847.36;104461;1267;99204;-68
2023/04/01 02:30:28;;;;;;;7.60;3.30;;;;;;;7.58;84.68;96845.80;104738;1265;108747;-67
2023/04/01 02:32:57;;;;;;;5.10;3.20;;;;;;;7.61;84.34;96846.61;104567;1267;99274;-67
2023/04/01 02:35:25;;;;;;;9.20;4.10;;;;;;;7.64;84.83;96846.86;104638;1259;98199;-68
2023/04/01 02:37:54;;;;;;;7.20;2.50;;;;;;;7.66;84.57;96846.87;104789;1265;112026;-68
2023/04/01 02:40:21;;;;;;;7.50;4.40;;;;;;;7.67;84.70;96847.60;104467;1264;265401;-67
2023/04/01 02:42:48;;;;;;;5.50;2.70;;;;;;;7.66;84.62;96840.70;104762;1264;97892;-68
2023/04/01 02:45:15;;;;;;;5.40;3.10;;;;;;;7.66;84.46;96842.57;104645;1259;99212;-68
2023/04/01 02:47:42;;;;;;;6.00;3.40;;;;;;;7.65;84.51;96846.37;104669;1281;97904;-67
2023/04/01 02:50:10;;;;;;;7.60;2.80;;;;;;;7.67;84.78;96847.56;104577;1266;97980;-69
2023/04/01 02:52:37;;;;;;;6.60;3.80;;;;;;;7.69;84.58;96848.81;104502;1259;98908;-68
2023/04/01 02:55:06;;;;;;;4.50;2.20;;;;;;;7.72;84.51;96849.37;104660;1259;97971;-69
2023/04/01 02:57:33;;;;;;;6.40;2.00;;;;;;;7.76;84.44;96854.33;104686;1278;97913;-70
2023/04/01 03:00:00;;;;;;;8.80;3.20;;;;;;;7.79;84.71;96856.91;104709;1263;98000;-67
2023/04/01 03:02:27;;;;;;;6.00;2.80;;;;;;;7.82;84.41;96860.59;104750;1275;97948;-67
2023/04/01 03:04:54;;;;;;;4.60;2.20;;;;;;;7.85;84.19;96858.58;104641;1265;97949;-67
2023/04/01 03:07:21;;;;;;;5.70;2.90;;;;;;;7.88;83.97;96860.81;104622;1265;99215;-68
2023/04/01 03:09:48;;;;;;;7.20;3.70;;;;;;;7.91;83.81;96856.98;104601;1274;97905;-68
2023/04/01 03:12:15;;;;;;;5.70;2.60;;;;;;;7.93;83.55;96857.96;104750;1265;97919;-68
2023/04/01 03:14:42;;;;;;;5.70;3.10;;;;;;;7.92;83.79;96859.60;104743;1263;98977;-68
2023/04/01 03:17:08;;;;;;;4.30;1.90;;;;;;;7.91;83.58;96857.77;104607;1264;97948;-68
2023/04/01 03:19:35;;;;;;;4.50;2.50;;;;;;;7.89;83.61;96857.50;104515;1264;99265;-67
2023/04/01 03:22:02;;;;;;;4.10;2.40;;;;;;;7.89;83.57;96859.96;104550;1270;97935;-68
2023/04/01 03:24:29;;;;;;;4.70;2.30;;;;;;;7.90;83.63;96859.45;104641;1263;97932;-68
2023/04/01 03:26:56;;;;;;;6.50;3.70;;;;;;;7.90;83.43;96863.89;104613;1274;98326;-68
2023/04/01 03:29:23;;;;;;;4.80;2.80;;;;;;;7.92;83.80;96862.73;104424;1260;97976;-68
2023/04/01 03:31:50;;;;;;;8.40;4.30;;;;;;;7.94;83.68;96861.36;104626;1265;97982;-68
2023/04/01 03:34:17;;;;;;;7.90;3.50;;;;;;;7.96;83.35;96867.05;104528;1275;99080;-67
2023/04/01 03:36:43;;;;;;;11.70;4.80;;;;;;;7.98;83.12;96866.86;104645;1266;97935;-68
2023/04/01 03:39:11;;;;;;;9.40;3.80;;;;;;;7.98;83.25;96865.95;104800;1263;97904;-68
2023/04/01 03:41:38;;;;;;;10.00;4.80;;;;;;;7.98;82.91;96866.73;104927;1263;98019;-68
2023/04/01 03:44:06;;;;;;;7.60;3.50;;;;;;;7.96;83.09;96866.11;104920;1263;98004;-68
2023/04/01 03:46:33;;;;;;;5.40;2.70;;;;;;;7.94;83.06;96867.83;104905;1263;98659;-68
2023/04/01 03:49:01;;;;;;;7.50;2.70;;;;;;;7.91;83.42;96865.97;104956;1263;98001;-68
2023/04/01 03:51:28;;;;;;;6.00;2.30;;;;;;;7.88;83.27;96864.08;104843;1263;99040;-68
2023/04/01 03:53:55;;;;;;;6.30;3.00;;;;;;;7.87;83.36;96860.05;104710;1278;98797;-68
2023/04/01 03:56:22;;;;;;;10.90;4.00;;;;;;;7.86;83.37;96858.84;104892;1271;97951;-68
2023/04/01 03:58:49;;;;;;;7.20;3.60;;;;;;;7.86;83.12;96860.27;104914;1263;98410;-68
2023/04/01 04:01:21;;;;;;;9.50;3.40;;;;;;;7.87;83.40;96864.89;104883;1264;108640;-68
2023/04/01 04:03:49;;;;;;;6.90;3.30;;;;;;;7.89;83.22;96863.01;105139;1263;98021;-68
2023/04/01 04:06:18;;;;;;;6.20;3.20;;;;;;;7.91;82.67;96862.22;104930;1261;99103;-69
2023/04/01 04:08:46;;;;;;;8.40;3.60;;;;;;;7.91;82.91;96862.54;104744;1263;112310;-68
2023/04/01 04:11:13;;;;;;;9.00;3.90;;;;;;;7.90;82.85;96865.00;104573;1266;98106;-68
2023/04/01 04:13:40;;;;;;;7.70;3.00;;;;;;;7.91;82.68;96865.17;104633;1263;97933;-68
2023/04/01 04:16:09;;;;;;;12.30;4.50;;;;;;;7.89;82.65;96864.90;104881;1263;98065;-71
2023/04/01 04:18:37;;;;;;;17.40;6.40;;;;;;;7.87;82.89;96863.04;104700;1257;98084;-69
2023/04/01 04:21:05;;;;;;;16.30;6.30;;;;;;;7.85;82.52;96859.98;104802;1263;112177;-68
2023/04/01 04:23:33;;;;;;;19.70;7.90;;;;;;;7.81;83.06;96855.25;104643;1266;98209;-67
2023/04/01 04:26:06;;;;;;;26.20;9.80;;;;;;;7.76;82.86;96861.29;104899;1257;108493;-67
2023/04/01 04:28:33;;;;;;;15.80;6.30;;;;;;;7.72;82.99;96857.55;104894;1267;97896;-68
2023/04/01 04:31:01;;;;;;;9.90;4.30;;;;;;;7.66;83.28;96856.59;104612;1267;98540;-67
2023/04/01 04:33:28;;;;;;;12.60;5.40;;;;;;;7.64;83.52;96857.29;104619;1265;111173;-68
2023/04/01 04:35:57;;;;;;;16.80;6.80;;;;;;;7.62;83.44;96853.88;104654;1270;97925;-67
2023/04/01 04:38:25;;;;;;;20.00;8.30;;;;;;;7.61;83.23;96854.94;104846;1263;108843;-68
2023/04/01 04:40:52;;;;;;;11.80;5.60;;;;;;;7.62;83.41;96855.36;104546;1276;97964;-67
2023/04/01 04:43:19;;;;;;;7.50;3.60;;;;;;;7.61;83.35;96852.30;104756;1257;98078;-68
2023/04/01 04:45:47;;;;;;;7.20;3.10;;;;;;;7.60;83.37;96849.53;104876;1270;98907;-67
2023/04/01 04:48:19;;;;;;;7.90;4.00;;;;;;;7.60;83.95;96852.73;104867;1263;99201;-67
2023/04/01 04:50:50;;;;;;;7.80;3.40;;;;;;;7.60;83.72;96854.28;104512;1265;107282;-67
2023/04/01 04:53:18;;;;;;;9.00;3.40;;;;;;;7.59;83.96;96851.86;104915;1263;97982;-67
2023/04/01 04:55:50;;;;;;;5.10;2.70;;;;;;;7.60;83.81;96856.08;104544;1265;99259;-68
2023/04/01 04:58:17;;;;;;;7.30;3.00;;;;;;;7.60;84.04;96856.88;104676;1263;112192;-67
2023/04/01 05:00:45;;;;;;;12.90;5.20;;;;;;;7.62;83.94;96859.02;104909;1263;99178;-67
2023/04/01 05:03:14;;;;;;;9.40;3.70;;;;;;;7.64;84.36;96858.09;104810;1280;109027;-67
2023/04/01 05:05:49;;;;;;;9.20;4.00;;;;;;;7.67;84.36;96861.29;104582;1263;98027;-68
2023/04/01 05:08:17;;;;;;;10.90;4.60;;;;;;;7.71;84.03;96862.83;104586;1268;99744;-67
2023/04/01 05:10:44;;;;;;;10.20;3.70;;;;;;;7.76;84.31;96866.09;104866;1273;97924;-67
2023/04/01 05:13:11;;;;;;;10.60;4.50;;;;;;;7.82;83.77;96864.33;104887;1263;99381;-67
2023/04/01 05:15:39;;;;;;;6.40;3.10;;;;;;;7.87;83.71;96863.34;104921;1263;99305;-67
2023/04/01 05:18:06;;;;;;;10.10;4.70;;;;;;;7.94;83.61;96864.42;104805;1272;98121;-67
2023/04/01 05:20:33;;;;;;;9.90;4.20;;;;;;;8.01;83.56;96864.71;104595;1272;97927;-68
2023/04/01 05:23:04;;;;;;;8.50;3.00;;;;;;;8.09;83.50;96862.92;104867;1263;98211;-68
2023/04/01 05:25:37;;;;;;;7.70;3.60;;;;;;;8.15;83.12;96863.98;104798;1263;99174;-69
2023/04/01 05:28:10;;;;;;;10.10;4.20;;;;;;;8.21;83.45;96860.55;104737;1261;108603;-68
2023/04/01 05:30:41;;;;;;;12.30;4.80;;;;;;;8.25;83.17;96862.10;104377;1268;99205;-68
2023/04/01 05:33:09;;;;;;;10.00;4.90;;;;;;;8.29;83.24;96864.95;104682;1264;98020;-69
2023/04/01 05:35:37;;;;;;;6.10;2.90;;;;;;;8.33;82.66;96866.28;104413;1268;111494;-68
2023/04/01 05:38:04;;;;;;;5.70;2.60;;;;;;;8.33;82.36;96866.55;104773;1262;98038;-70
2023/04/01 05:40:33;;;;;;;5.30;3.20;;;;;;;8.36;82.48;96874.72;104582;1262;108735;-69
2023/04/01 05:43:00;;;;;;;3.60;2.10;;;;;;;8.38;82.34;96870.84;104740;1262;97971;-70
2023/04/01 05:45:28;;;;;;;8.50;3.30;;;;;;;8.40;82.26;96872.59;104592;1261;97866;-68
2023/04/01 05:47:54;;;;;;;7.00;3.10;;;;;;;8.41;82.14;96871.23;104495;1259;98024;-67
2023/04/01 05:50:22;;;;;;;4.40;2.60;;;;;;;8.42;82.10;96873.13;104574;1259;98129;-67
2023/04/01 05:52:49;;;;;;;9.70;4.50;;;;;;;8.44;82.01;96874.42;104524;1280;99096;-67
2023/04/01 05:55:16;;;;;;;7.90;3.80;;;;;;;8.45;82.26;96877.42;104687;1259;98524;-67
2023/04/01 05:57:45;;;;;;;5.70;2.50;;;;;;;8.46;81.90;96880.65;104894;1262;98848;-67
2023/04/01 06:00:13;;;;;;;6.10;3.40;;;;;;;8.47;81.82;96878.13;104764;1262;112237;-67
2023/04/01 06:02:42;;;;;;;6.00;3.00;;;;;;;8.50;82.03;96881.33;104570;1265;98128;-66
2023/04/01 06:05:18;;;;;;;6.60;2.90;;;;;;;8.53;82.24;96880.39;104841;1262;108634;-66
2023/04/01 06:07:45;;;;;;;6.00;3.30;;;;;;;8.55;82.13;96879.38;104617;1265;98038;-67
2023/04/01 06:10:15;;;;;;;7.60;3.30;;;;;;;8.56;81.61;96882.61;104864;1260;97946;-68
2023/04/01 06:13:08;;;;;;;5.90;3.20;;;;;;;8.59;81.48;96885.73;104594;1265;111697;-68
2023/04/01 06:15:50;;;;;;;8.10;4.10;;;;;;;8.64;81.66;96887.08;104067;1287;98594;-68
2023/04/01 06:18:25;;;;;;;5.30;2.80;;;;;;;8.72;82.08;96892.83;104173;1279;107151;-67
2023/04/01 06:21:37;;;;;;;5.60;2.90;;;;;;;8.81;81.66;96891.59;104098;1283;97969;-67
2023/04/01 06:24:04;;;;;;;;;;;;;;;8.90;81.01;96890.55;104215;1269;98006;-67
2023/04/01 06:26:39;;;;;;;7.10;3.00;;;;;;;8.97;81.03;96892.08;104611;1276;97938;-67
2023/04/01 06:29:23;;;;;;;5.90;3.00;;;;;;;9.09;80.67;96892.39;104148;1279;99147;-67
2023/04/01 06:31:54;;;;;;;6.70;2.90;;;;;;;9.19;80.47;96889.08;104340;1269;108617;-67
2023/04/01 06:34:24;;;;;;;9.30;3.70;;;;;;;9.25;79.76;96890.34;104397;1267;97993;-68
2023/04/01 06:37:07;;;;;;;5.50;2.40;;;;;;;9.28;79.65;96892.13;104293;1266;99308;-68
2023/04/01 06:40:03;;;;;;;9.20;3.70;;;;;;;9.33;79.69;96894.60;104207;1276;111058;-67
2023/04/01 06:43:01;;;;;;;5.20;2.50;;;;;;;9.37;79.56;96894.56;104058;1272;99937;-67
2023/04/01 06:45:48;;;;;;;9.90;3.50;;;;;;;9.45;80.01;96893.75;103827;1275;109701;-66
2023/04/01 06:48:47;;;;;;;6.20;3.30;;;;;;;9.55;79.65;96893.23;103788;1275;97992;-66
2023/04/01 06:51:31;;;;;;;9.60;4.40;;;;;;;9.66;79.26;96892.09;103276;1290;98383;-69
2023/04/01 06:54:12;;;;;;;7.40;3.70;;;;;;;9.78;79.10;96895.23;103733;1287;112270;-68
2023/04/01 06:56:43;;;;;;;5.00;2.70;;;;;;;9.89;78.89;96893.84;103826;1287;98609;-67
2023/04/01 06:59:22;;;;;;;6.40;3.20;;;;;;;9.99;78.35;96889.48;103625;1277;108824;-67
2023/04/01 07:02:09;;;;;;;6.50;2.50;;;;;;;10.05;77.52;96893.45;103824;1271;98101;-67
2023/04/01 07:04:44;;;;;;;5.20;3.00;;;;;;;10.05;77.52;96901.98;103236;1280;98088;-75
2023/04/01 07:07:37;;;;;;;8.60;3.70;;;;;;;10.07;77.54;96903.59;103299;1283;111267;-68
2023/04/01 07:10:31;;;;;;;4.70;2.60;;;;;;;10.10;77.32;96904.91;103393;1293;99194;-69
2023/04/01 07:13:02;;;;;;;5.90;2.90;;;;;;;10.11;76.51;96904.70;103175;1283;108332;-67
2023/04/01 07:15:42;;;;;;;8.20;3.20;;;;;;;10.10;76.55;96905.53;103259;1291;98105;-68
2023/04/01 07:18:28;;;;;;;4.30;2.40;;;;;;;10.10;77.16;96906.86;103133;1289;98520;-67
2023/04/01 07:21:00;;;;;;;5.00;2.50;;;;;;;10.12;76.71;96911.69;103505;1280;112231;-67
2023/04/01 07:23:46;;;;;;;6.70;3.10;;;;;;;10.18;76.45;96912.98;103586;1275;98344;-68
2023/04/01 07:26:22;;;;;;;5.70;2.80;;;;;;;10.21;76.26;96917.76;103877;1287;107732;-67
2023/04/01 07:28:52;;;;;;;4.80;2.80;;;;;;;10.26;76.63;96916.94;103904;1285;97990;-68
2023/04/01 07:31:35;;;;;;;5.50;2.70;;;;;;;10.34;76.72;96918.77;104110;1278;98011;-68
2023/04/01 07:34:23;;;;;;;5.40;2.70;;;;;;;10.40;75.70;96921.17;104026;1271;112153;-67
2023/04/01 07:37:03;;;;;;;6.70;2.90;;;;;;;10.40;75.54;96922.50;104038;1274;99337;-67
2023/04/01 07:39:43;;;;;;;4.40;2.40;;;;;;;10.40;75.89;96923.83;104175;1271;109175;-67
2023/04/01 07:42:16;;;;;;;5.60;2.60;;;;;;;10.42;76.57;96923.95;104314;1271;97951;-68
2023/04/01 07:45:11;;;;;;;6.00;2.60;;;;;;;10.40;77.09;96924.77;104807;1265;99121;-68
2023/04/01 07:47:52;;;;;;;6.40;3.90;;;;;;;10.40;77.49;96924.61;104587;1268;111807;-69
2023/04/01 07:50:34;;;;;;;6.30;3.60;;;;;;;10.40;78.29;96927.13;104543;1278;99602;-67
2023/04/01 07:53:33;;;;;;;6.20;3.10;;;;;;;10.40;78.30;96928.61;104654;1265;108676;-67
2023/04/01 07:56:11;;;;;;;9.60;4.40;;;;;;;10.36;78.31;96928.82;104484;1285;97951;-67
2023/04/01 07:59:03;;;;;;;11.20;4.90;;;;;;;10.38;78.28;96931.22;104569;1276;98370;-67
2023/04/01 08:01:50;;;;;;;4.90;3.10;;;;;;;10.46;78.16;96937.98;104477;1273;111307;-67
2023/04/01 08:04:20;;;;;;;7.30;3.50;;;;;;;10.60;78.14;96937.15;104301;1279;98068;-67
2023/04/01 08:06:59;;;;;;;8.00;3.80;;;;;;;10.75;77.74;96939.29;104339;1266;108633;-66
2023/04/01 08:10:13;;;;;;;8.80;4.00;;;;;;;10.83;78.29;96941.80;104302;1275;99286;-67
2023/04/01 08:12:45;;;;;;;6.00;3.20;;;;;;;10.92;78.90;96943.02;104086;1267;98270;-67
2023/04/01 08:15:32;;;;;;;7.30;4.00;;;;;;;11.05;79.14;96944.22;104122;1271;112479;-67
2023/04/01 08:18:11;;;;;;;4.20;2.80;;;;;;;11.20;78.84;96946.02;104094;1278;98654;-68
2023/04/01 08:20:47;;;;;;;7.00;3.50;;;;;;;11.26;78.23;96949.73;103997;1269;108494;-68
2023/04/01 08:23:25;;;;;;;4.90;3.00;;;;;;;11.28;78.35;96951.43;104092;1278;97931;-70
2023/04/01 08:25:55;;;;;;;7.20;4.10;;;;;;;11.32;77.93;96955.58;104053;1272;99092;-68
2023/04/01 08:28:32;;;;;;;7.20;3.70;;;;;;;11.39;77.84;96955.16;104196;1271;112238;-67
2023/04/01 08:31:13;;;;;;;5.60;3.00;;;;;;;11.61;78.33;96954.03;104160;1271;99320;-67
2023/04/01 08:33:44;;;;;;;5.40;4.00;;;;;;;11.86;77.75;96957.23;104143;1279;108721;-67
2023/04/01 08:36:23;;;;;;;7.30;3.90;;;;;;;11.98;77.01;96954.38;104195;1277;98086;-67
2023/04/01 08:39:10;;;;;;;7.10;4.00;;;;;;;12.08;77.46;96957.70;104175;1271;98302;-67
2023/04/01 08:42:14;;;;;;;6.30;3.70;;;;;;;12.09;77.75;96958.52;104228;1279;112250;-67
2023/04/01 08:45:09;;;;;;;5.90;3.40;;;;;;;12.08;78.00;96957.77;104100;1273;98957;-68
2023/04/01 08:47:50;;;;;;;5.50;2.80;;;;;;;11.94;77.00;96958.23;104140;1270;108566;-68
2023/04/01 08:50:55;;;;;;;4.60;3.10;;;;;;;11.85;78.06;96958.53;104466;1271;99291;-68
2023/04/01 08:54:13;;;;;;;5.50;3.30;;;;;;;11.75;78.03;96954.05;104596;1266;98478;-68
2023/04/01 08:57:17;;;;;;;9.80;4.90;;;;;;;11.69;78.55;96955.42;104073;1274;111612;-68
2023/04/01 08:59:44;;;;;;;9.50;5.90;;;;;;;11.82;80.97;96951.59;104289;1272;99295;-68
2023/04/01 09:02:49;;;;;;;9.80;6.30;;;;;;;12.02;81.37;96955.31;104195;1279;97980;-68
2023/04/01 09:05:31;;;;;;;8.40;5.20;;;;;;;12.23;80.41;96959.15;104114;1274;98109;-67
2023/04/01 09:08:20;;;;;;;5.80;3.70;;;;;;;12.38;79.23;96959.46;104329;1266;98010;-67
2023/04/01 09:11:10;;;;;;;7.20;4.00;;;;;;;12.47;78.04;96959.05;104245;1278;112267;-68
2023/04/01 09:13:58;;;;;;;6.40;3.80;;;;;;;12.53;77.22;96957.81;104270;1272;99187;-67
2023/04/01 09:16:54;;;;;;;6.50;3.70;;;;;;;12.59;76.87;96959.31;104098;1274;108258;-69
2023/04/01 09:19:32;;;;;;;5.00;3.50;;;;;;;12.71;76.44;96956.36;104160;1279;98000;-67
2023/04/01 09:22:20;;;;;;;7.00;3.80;;;;;;;12.87;77.05;96956.81;104214;1265;99100;-67
2023/04/01 09:25:22;;;;;;;5.10;3.20;;;;;;;13.07;75.99;96960.77;104183;1279;112494;-67
2023/04/01 09:28:01;;;;;;;7.40;4.70;;;;;;;13.06;75.25;96959.42;104027;1276;99107;-67
2023/04/01 09:30:32;;;;;;;23.20;12.90;;;;;;;13.00;74.39;96959.67;103941;1282;108840;-68
2023/04/01 09:32:59;;;;;;;;;;;;;;;12.97;74.92;96959.23;104151;1281;98600;-68
2023/04/01 09:35:39;;;;;;;6.50;4.50;;;;;;;12.90;74.93;96962.48;104526;1269;98053;-68
2023/04/01 09:38:25;;;;;;;29.00;18.80;;;;;;;12.78;74.47;96963.42;104532;1273;112331;-68
2023/04/01 09:41:26;;;;;;;8.60;5.60;;;;;;;12.65;75.34;96959.71;104324;1277;99122;-68
2023/04/01 09:44:32;;;;;;;7.40;4.50;;;;;;;12.52;76.17;96963.36;104139;1268;107643;-70
2023/04/01 09:47:27;;;;;;;7.30;4.60;;;;;;;12.32;76.08;96970.50;104317;1274;97990;-71
2023/04/01 09:50:14;;;;;;;6.80;3.80;;;;;;;12.11;76.61;96972.44;104546;1268;99196;-67
2023/04/01 09:53:04;;;;;;;4.70;3.10;;;;;;;12.03;76.80;96975.79;104527;1276;111194;-67
2023/04/01 09:55:50;;;;;;;6.40;4.60;;;;;;;12.08;77.04;96976.05;104262;1281;98232;-67
2023/04/01 09:58:54;;;;;;;37.90;20.80;;;;;;;12.31;77.29;96973.70;104509;1268;108313;-67
2023/04/01 10:01:55;;;;;;;13.30;9.30;;;;;;;12.70;75.54;96964.10;104115;1268;98027;-66
2023/04/01 10:04:51;;;;;;;2.50;2.00;;;;;;;12.92;72.35;96967.88;104351;1276;99416;-67
2023/04/01 10:07:18;;;;;;;3.40;2.40;;;;;;;13.10;73.57;96973.05;104559;1264;112203;-66
2023/04/01 10:10:04;;;;;;;6.90;5.10;;;;;;;13.26;73.26;96970.60;104837;1263;97901;-67
2023/04/01 10:12:37;;;;;;;5.90;4.50;;;;;;;13.54;72.65;96970.89;104478;1276;108807;-67
2023/04/01 10:15:33;;;;;;;2.90;1.50;;;;;;;13.75;72.53;96969.23;104509;1264;98385;-68
2023/04/01 10:18:30;;;;;;;6.30;3.80;;;;;;;13.91;70.55;96969.23;104560;1265;99173;-66
2023/04/01 10:21:12;;;;;;;3.30;2.30;;;;;;;14.15;69.58;96967.11;104619;1263;112233;-67
2023/04/01 10:24:32;;;;;;;3.10;1.70;;;;;;;14.29;68.93;96968.90;104619;1272;99208;-67
2023/04/01 10:27:31;;;;;;;10.20;4.30;;;;;;;14.42;67.74;96970.02;104495;1287;108602;-67
2023/04/01 10:30:18;;;;;;;;;;;;;;;14.39;67.01;96969.76;104421;1285;99244;-67
2023/04/01 10:33:26;;;;;;;13.60;5.60;;;;;;;14.34;67.83;96971.14;104418;1270;99368;-67
2023/04/01 10:36:14;;;;;;;7.90;3.50;;;;;;;14.22;66.18;96973.86;104169;1273;111947;-67
2023/04/01 10:39:19;;;;;;;4.30;1.80;;;;;;;14.02;66.84;96970.06;104229;1274;99379;-67
2023/04/01 10:42:11;;;;;;;2.10;1.60;;;;;;;13.67;66.27;96970.09;104182;1274;107640;-67
2023/04/01 10:44:47;;;;;;;2.60;1.80;;;;;;;13.50;66.79;96970.98;104143;1278;98512;-67
2023/04/01 10:47:56;;;;;;;3.60;1.50;;;;;;;13.36;66.48;96973.63;104160;1270;98703;-67
2023/04/01 10:51:18;;;;;;;4.30;1.80;;;;;;;13.16;66.68;96974.40;103831;1274;112403;-67
2023/04/01 10:54:19;;;;;;;2.40;1.30;;;;;;;12.93;66.96;96969.86;103224;1299;98411;-68
2023/04/01 10:56:57;;;;;;;3.40;1.80;;;;;;;12.83;67.95;96969.17;103234;1283;107749;-67
2023/04/01 10:59:42;;;;;;;6.20;2.50;;;;;;;12.73;68.56;96971.00;103216;1291;98459;-68
2023/04/01 11:02:37;;;;;;;3.40;1.80;;;;;;;12.61;69.90;96974.40;103373;1283;99209;-68
2023/04/01 11:05:32;;;;;;;2.20;1.30;;;;;;;12.52;70.41;96974.98;103359;1290;111494;-68
2023/04/01 11:08:36;;;;;;;2.20;1.40;;;;;;;12.57;71.17;96971.98;103523;1284;99284;-66
2023/04/01 11:11:11;;;;;;;2.20;1.20;;;;;;;12.60;70.22;96971.01;103483;1280;108198;-68
2023/04/01 11:14:16;;;;;;;2.30;1.30;;;;;;;12.64;70.89;96967.94;103712;1290;98721;-66
2023/04/01 11:16:43;;;;;;;14.90;5.10;;;;;;;12.99;72.22;96971.20;103724;1287;99686;-66
2023/04/01 11:19:33;;;;;;;11.50;5.20;;;;;;;13.51;70.39;96969.82;103803;1287;99311;-68
2023/04/01 11:22:10;;;;;;;9.90;4.40;;;;;;;14.22;68.33;96973.23;103586;1280;98628;-66
2023/04/01 11:25:21;;;;;;;11.40;4.50;;;;;;;14.66;65.87;96973.74;103364;1287;108813;-66
2023/04/01 11:28:17;;;;;;;;;;;;;;;14.68;64.31;96980.52;103874;1284;98134;-66
2023/04/01 11:31:03;;;;;;;9.40;3.70;;;;;;;14.39;64.67;96978.80;104525;1264;97912;-66
2023/04/01 11:33:40;;;;;;;5.20;2.60;;;;;;;14.12;64.91;96978.64;104486;1260;112347;-66
2023/04/01 11:36:13;;;;;;;10.00;3.80;;;;;;;13.88;64.73;96976.36;104649;1265;99324;-66
2023/04/01 11:39:11;;;;;;;10.30;4.70;;;;;;;13.76;65.49;96972.00;104462;1273;105810;-66
2023/04/01 11:42:05;;;;;;;12.20;4.80;;;;;;;13.88;65.29;96971.49;104550;1267;98081;-66
2023/04/01 11:44:36;;;;;;;6.70;3.40;;;;;;;14.05;64.85;96974.42;104859;1263;98101;-66
2023/04/01 11:47:12;;;;;;;;;;;;;;;14.04;64.50;96977.00;104571;1264;110771;-68
2023/04/01 11:49:55;;;;;;;5.70;3.00;;;;;;;13.78;63.28;96975.64;104874;1271;99297;-66
2023/04/01 11:52:37;;;;;;;3.70;1.60;;;;;;;13.46;63.95;96982.72;104743;1271;108210;-66
2023/04/01 11:55:54;;;;;;;3.30;1.70;;;;;;;13.21;64.82;96981.85;104612;1274;97981;-67
2023/04/01 11:58:51;;;;;;;14.50;6.10;;;;;;;13.24;66.32;96985.98;104284;1269;97880;-67
2023/04/01 12:01:42;;;;;;;11.90;5.10;;;;;;;13.57;65.30;96982.96;104451;1273;112260;-66
2023/04/01 12:04:24;;;;;;;3.30;1.50;;;;;;;13.85;64.36;96982.95;104302;1267;98678;-66
2023/04/01 12:07:01;;;;;;;4.00;2.20;;;;;;;14.10;63.31;96985.25;104284;1269;109157;-66
2023/04/01 12:09:47;;;;;;;5.20;2.30;;;;;;;14.51;63.06;96985.67;104128;1283;98845;-66
2023/04/01 12:12:23;;;;;;;5.30;2.30;;;;;;;14.78;62.49;96980.61;104484;1268;99235;-66
2023/04/01 12:15:14;;;;;;;4.50;2.50;;;;;;;14.95;60.75;96978.45;104412;1276;112146;-66
2023/04/01 12:17:47;;;;;;;;;;;;;;;15.05;60.73;96980.80;104431;1268;99265;-66